Time;durP1;ratioP1;P1;durP2;ratioP2;P2;SDS_P1;SDS_P2;PMS_P1;PMS_P2;Temp;Humidity;BMP_temperature;BMP_pressure;BME280_temperature;BME280_humidity;BME280_pressure;Samples;Min_cycle;Max_cycle;Signal;HPM_P1;HPM_P2
2020/12/12 00:00:17;;;;;;;44.67;17.37;;;;;;;1.24;85.62;97761.23;2269346;78;21284;-65
2020/12/12 00:03:21;;;;;;;48.30;18.75;;;;;;;1.29;85.72;97757.98;2269193;78;21537;-65
2020/12/12 00:06:23;;;;;;;46.42;19.27;;;;;;;1.37;85.57;97752.53;2267196;78;21277;-65
2020/12/12 00:09:25;;;;;;;51.88;18.30;;;;;;;1.38;85.45;97746.00;2253820;79;21272;-65
2020/12/12 00:12:28;;;;;;;44.83;17.52;;;;;;;1.47;85.23;97746.54;2253288;79;21265;-65
2020/12/12 00:15:30;;;;;;;46.20;18.60;;;;;;;1.45;85.25;97747.89;2253522;79;21288;-65
2020/12/12 00:18:33;;;;;;;42.95;16.97;;;;;;;1.42;85.05;97751.05;2253195;79;21708;-65
2020/12/12 00:21:35;;;;;;;48.78;19.23;;;;;;;1.33;85.22;97754.38;2253271;79;21280;-65
2020/12/12 00:24:37;;;;;;;43.15;16.93;;;;;;;1.37;85.34;97755.94;2253265;79;21281;-65
2020/12/12 00:27:39;;;;;;;46.83;17.67;;;;;;;1.36;85.16;97754.72;2253328;79;21716;-65
2020/12/12 00:30:42;;;;;;;43.68;17.65;;;;;;;1.33;85.23;97759.55;2253294;79;21265;-65
2020/12/12 00:33:44;;;;;;;46.05;19.85;;;;;;;1.27;85.25;97762.39;2253746;79;21276;-65
2020/12/12 00:36:46;;;;;;;46.60;17.87;;;;;;;1.27;85.49;97761.56;2253325;79;21729;-65
2020/12/12 00:39:48;;;;;;;46.65;19.10;;;;;;;1.32;85.50;97760.48;2253814;79;21114;-65
2020/12/12 00:42:50;;;;;;;46.80;18.07;;;;;;;1.35;85.38;97756.47;2253370;79;21292;-65
2020/12/12 00:45:52;;;;;;;45.90;17.15;;;;;;;1.32;85.35;97757.03;2253279;79;21249;-65
2020/12/12 00:48:54;;;;;;;44.42;18.17;;;;;;;1.17;85.62;97759.79;2253727;79;21277;-65
2020/12/12 00:51:56;;;;;;;48.23;18.85;;;;;;;1.11;85.58;97769.09;2253607;79;21744;-65
2020/12/12 00:58:44;;;;;;;47.65;18.65;;;;;;;1.15;85.71;97768.90;2250872;79;21122;-65
2020/12/12 01:01:46;;;;;;;45.30;18.48;;;;;;;1.21;85.58;97775.56;2253614;79;21280;-65
2020/12/12 01:04:48;;;;;;;47.43;17.87;;;;;;;1.20;85.70;97768.70;2253531;79;21284;-65
2020/12/12 01:07:50;;;;;;;49.18;20.02;;;;;;;1.26;85.53;97771.50;2262125;78;21284;-65
2020/12/12 01:10:52;;;;;;;47.43;20.52;;;;;;;1.19;85.24;97770.89;2269329;78;21692;-65
2020/12/12 01:13:55;;;;;;;49.55;18.98;;;;;;;1.13;85.43;97768.56;2269293;78;21708;-65
2020/12/12 01:16:58;;;;;;;47.33;19.07;;;;;;;1.13;85.49;97775.02;2269101;78;21161;-65
2020/12/12 01:20:01;;;;;;;44.38;18.87;;;;;;;1.15;85.48;97778.37;2246350;78;21596;-65
2020/12/12 01:23:03;;;;;;;51.63;20.15;;;;;;;1.15;85.45;97776.65;2269251;78;21296;-65
2020/12/12 01:26:05;;;;;;;49.20;20.48;;;;;;;1.16;85.47;97768.44;2269392;78;21288;-65
2020/12/12 01:29:07;;;;;;;45.92;18.57;;;;;;;1.19;85.48;97772.19;2269229;78;21716;-65
2020/12/12 01:32:09;;;;;;;49.25;19.35;;;;;;;1.25;85.56;97766.80;2269559;78;21284;-65
2020/12/12 01:35:11;;;;;;;46.05;18.92;;;;;;;1.34;85.50;97769.45;2269241;78;21272;-65
2020/12/12 01:41:52;;;;;;;48.23;19.87;;;;;;;1.29;85.05;97774.78;2269710;78;21082;-65
2020/12/12 01:44:54;;;;;;;50.03;20.00;;;;;;;1.31;85.17;97776.88;2269503;78;21716;-65
2020/12/12 01:47:58;;;;;;;45.88;19.90;;;;;;;1.31;85.25;97769.13;2269229;78;21265;-65
2020/12/12 01:51:00;;;;;;;45.10;18.25;;;;;;;1.28;85.20;97774.84;2269433;78;21271;-65
2020/12/12 01:54:02;;;;;;;49.88;19.10;;;;;;;;;;2269262;78;21712;-65
2020/12/12 01:57:04;;;;;;;49.63;19.50;;;;;;;1.34;85.31;97771.58;2269322;78;21700;-65
2020/12/12 02:00:06;;;;;;;51.63;19.85;;;;;;;1.32;85.00;97767.37;2269519;78;21253;-65
2020/12/12 02:03:08;;;;;;;54.67;21.52;;;;;;;1.27;85.18;97767.56;2269274;78;21248;-65
2020/12/12 02:06:10;;;;;;;51.98;21.00;;;;;;;1.22;85.15;97768.18;2269627;78;21288;-65
2020/12/12 02:09:12;;;;;;;46.77;19.45;;;;;;;1.24;85.27;97757.35;2269179;78;21696;-65
2020/12/12 02:12:14;;;;;;;50.60;21.45;;;;;;;1.26;85.18;97761.16;2269253;78;21280;-65
2020/12/12 02:15:16;;;;;;;48.42;19.15;;;;;;;1.17;85.12;97759.79;2269707;78;21304;-65
2020/12/12 02:18:19;;;;;;;45.63;18.60;;;;;;;1.09;85.24;97759.25;2269181;78;21283;-65
2020/12/12 02:21:21;;;;;;;46.08;19.35;;;;;;;1.01;85.69;97758.27;2269473;78;21708;-65
2020/12/12 02:24:23;;;;;;;48.68;20.23;;;;;;;0.93;85.80;97755.14;2269747;78;21688;-65
2020/12/12 02:27:26;;;;;;;49.73;21.23;;;;;;;0.89;85.72;97760.89;2269519;78;21260;-65
2020/12/12 02:30:28;;;;;;;48.08;20.68;;;;;;;1.02;85.97;97754.34;2269733;78;21276;-65
2020/12/12 02:33:30;;;;;;;52.00;20.40;;;;;;;1.08;85.71;97751.10;2269379;78;21707;-65
2020/12/12 02:36:32;;;;;;;48.92;20.70;;;;;;;1.05;85.55;97753.37;2269417;78;21296;-65
2020/12/12 02:39:34;;;;;;;47.30;20.05;;;;;;;1.06;85.53;97743.88;2269211;78;21268;-65
2020/12/12 02:42:36;;;;;;;51.68;20.08;;;;;;;1.03;85.58;97745.70;2269536;78;21700;-65
2020/12/12 02:45:39;;;;;;;50.15;19.25;;;;;;;1.00;85.43;97736.75;2269414;78;21604;-65
2020/12/12 02:48:41;;;;;;;55.20;21.30;;;;;;;0.89;85.59;97742.81;2269178;78;21256;-65
2020/12/12 02:51:43;;;;;;;52.25;21.05;;;;;;;0.85;85.72;97745.95;2269222;78;21277;-65
2020/12/12 02:54:45;;;;;;;50.83;20.32;;;;;;;0.83;85.84;97746.47;2269347;78;21705;-65
2020/12/12 02:57:47;;;;;;;50.05;19.62;;;;;;;0.88;85.82;97744.14;2269177;78;21323;-65
2020/12/12 03:00:49;;;;;;;51.30;20.08;;;;;;;0.82;85.85;97749.09;2269467;78;21557;-65
2020/12/12 03:03:51;;;;;;;48.15;20.17;;;;;;;0.79;86.05;97746.63;2269219;78;21261;-65
2020/12/12 03:06:54;;;;;;;52.45;20.52;;;;;;;0.77;85.91;97739.41;2269358;78;21288;-65
2020/12/12 03:09:56;;;;;;;49.93;20.45;;;;;;;0.70;85.89;97738.80;2269511;78;21273;-65
2020/12/12 03:12:58;;;;;;;47.73;20.00;;;;;;;0.67;85.99;97735.88;2269383;78;21284;-65
2020/12/12 03:16:00;;;;;;;49.70;20.45;;;;;;;0.75;86.14;97737.31;2269384;78;21304;-65
2020/12/12 03:19:03;;;;;;;49.98;21.12;;;;;;;0.75;86.03;97736.03;2269407;78;21260;-65
2020/12/12 03:22:05;;;;;;;50.52;21.30;;;;;;;0.77;86.03;97735.53;2269429;78;21280;-65
2020/12/12 03:25:07;;;;;;;56.63;22.20;;;;;;;0.83;86.09;97738.73;2269685;78;21276;-65
2020/12/12 03:28:09;;;;;;;48.63;20.62;;;;;;;0.86;86.05;97745.48;2269874;78;21276;-65
2020/12/12 03:31:11;;;;;;;48.17;20.15;;;;;;;0.85;86.16;97733.05;2269552;78;21676;-65
2020/12/12 03:34:13;;;;;;;52.38;20.70;;;;;;;0.77;86.23;97740.23;2269558;78;21260;-65
2020/12/12 03:37:15;;;;;;;49.90;19.82;;;;;;;0.78;86.30;97734.64;2269338;78;21276;-65
2020/12/12 03:40:17;;;;;;;48.83;20.32;;;;;;;0.85;86.30;97727.88;2269586;78;21738;-65
2020/12/12 03:43:22;;;;;;;45.58;18.55;;;;;;;0.81;86.23;97734.52;2269675;78;21288;-65
2020/12/12 03:46:24;;;;;;;50.95;20.05;;;;;;;0.83;86.44;97730.98;2269284;78;21544;-65
2020/12/12 03:49:26;;;;;;;50.52;21.37;;;;;;;0.88;86.83;97734.67;2269783;78;21275;-65
2020/12/12 03:52:28;;;;;;;53.73;22.87;;;;;;;0.82;86.32;97740.05;2269462;78;21261;-65
2020/12/12 03:55:30;;;;;;;51.98;21.30;;;;;;;0.85;86.43;97734.80;2269315;78;21281;-65
2020/12/12 03:58:32;;;;;;;51.05;20.75;;;;;;;0.84;86.44;97733.94;2269567;78;21699;-65
2020/12/12 04:01:34;;;;;;;49.48;20.45;;;;;;;0.90;86.41;97735.90;2269533;78;21257;-65
2020/12/12 04:04:36;;;;;;;51.95;22.20;;;;;;;0.93;86.46;97728.03;2269375;78;21280;-65
2020/12/12 04:07:38;;;;;;;50.80;21.97;;;;;;;0.94;86.36;97724.55;2269340;78;21280;-65
2020/12/12 04:10:41;;;;;;;54.85;22.87;;;;;;;1.05;86.32;97730.14;2269372;78;21707;-65
2020/12/12 04:13:43;;;;;;;54.23;22.75;;;;;;;1.14;86.36;97728.46;2269657;78;21263;-65
2020/12/12 04:16:45;;;;;;;52.67;21.97;;;;;;;1.16;86.08;97728.39;2269692;78;21288;-65
2020/12/12 04:19:47;;;;;;;57.30;22.77;;;;;;;1.16;86.07;97724.06;2246431;78;21739;-65
2020/12/12 04:22:49;;;;;;;49.85;20.90;;;;;;;1.20;86.02;97728.67;2269626;78;21264;-65
2020/12/12 04:25:51;;;;;;;54.00;21.60;;;;;;;1.25;85.95;97724.59;2269574;78;21324;-65
2020/12/12 04:28:54;;;;;;;53.68;21.80;;;;;;;1.17;85.91;97732.20;2269425;78;21708;-65
2020/12/12 04:31:56;;;;;;;58.38;22.98;;;;;;;1.13;86.12;97728.52;2269369;78;21248;-65
2020/12/12 04:34:58;;;;;;;51.75;22.73;;;;;;;1.13;86.20;97736.27;2246357;78;21277;-65
2020/12/12 04:38:00;;;;;;;51.15;21.00;;;;;;;1.17;86.08;97736.55;2269282;78;21260;-65
2020/12/12 04:41:03;;;;;;;55.30;22.05;;;;;;;1.21;86.10;97733.77;2269303;78;21237;-65
2020/12/12 04:44:05;;;;;;;51.35;22.13;;;;;;;1.18;86.03;97743.41;2269580;78;21699;-65
2020/12/12 04:47:07;;;;;;;50.48;20.88;;;;;;;1.11;86.02;97748.42;2269299;78;21139;-65
2020/12/12 04:50:09;;;;;;;52.17;22.25;;;;;;;1.09;86.05;97744.58;2269809;78;21259;-65
2020/12/12 04:53:12;;;;;;;49.90;21.27;;;;;;;1.14;86.31;97748.30;2269339;78;21272;-65
2020/12/12 04:56:14;;;;;;;52.58;22.20;;;;;;;1.16;86.17;97741.31;2269337;78;21300;-65
2020/12/12 04:59:16;;;;;;;52.08;22.02;;;;;;;1.19;86.25;97738.60;2269834;78;21268;-65
2020/12/12 05:02:18;;;;;;;52.20;21.10;;;;;;;1.14;86.31;97728.46;2269539;78;21264;-65
2020/12/12 05:05:20;;;;;;;48.68;20.08;;;;;;;1.08;86.37;97725.27;2246357;78;21267;-65
2020/12/12 05:08:22;;;;;;;53.42;21.95;;;;;;;1.02;86.82;97719.47;2263446;78;21301;-65
2020/12/12 05:11:24;;;;;;;48.33;19.77;;;;;;;0.97;86.76;97718.80;2253238;79;21308;-64
2020/12/12 05:14:26;;;;;;;51.30;21.00;;;;;;;0.95;87.43;97720.62;2253387;79;21751;-65
2020/12/12 05:17:28;;;;;;;44.38;17.92;;;;;;;0.92;86.92;97725.91;2253267;79;21315;-65
2020/12/12 05:20:31;;;;;;;50.67;18.48;;;;;;;0.94;87.15;97720.68;2253462;79;21713;-65
2020/12/12 05:23:33;;;;;;;43.05;17.05;;;;;;;0.91;86.99;97712.59;2253213;79;21257;-65
2020/12/12 05:26:35;;;;;;;44.15;17.73;;;;;;;0.81;87.64;97712.58;2253717;79;21268;-65
2020/12/12 05:29:37;;;;;;;43.42;16.90;;;;;;;0.79;87.64;97710.48;2253158;79;21729;-66
2020/12/12 05:32:39;;;;;;;45.05;17.67;;;;;;;0.80;87.68;97707.84;2253202;79;21265;-65
2020/12/12 05:35:42;;;;;;;42.30;17.25;;;;;;;0.81;87.27;97713.87;2253211;79;21593;-65
2020/12/12 05:38:44;;;;;;;43.15;17.37;;;;;;;0.84;87.68;97713.28;2253183;79;21265;-65
2020/12/12 05:41:46;;;;;;;;;;;;;;;0.86;87.41;97729.57;2255784;79;21293;-65
2020/12/12 05:44:48;;;;;;;49.48;18.45;;;;;;;0.90;87.39;97723.82;2253141;78;20137;-65
2020/12/12 05:47:51;;;;;;;45.33;18.23;;;;;;;0.95;87.43;97729.66;2253710;79;21276;-65
2020/12/12 05:50:53;;;;;;;43.38;17.25;;;;;;;1.02;87.45;97736.69;2253208;79;21803;-65
2020/12/12 05:53:55;;;;;;;41.50;16.55;;;;;;;1.02;87.02;97729.80;2253192;79;21716;-65
2020/12/12 05:56:58;;;;;;;38.83;15.28;;;;;;;1.06;87.06;97733.09;2252962;79;21123;-65
2020/12/12 06:00:00;;;;;;;40.23;17.45;;;;;;;1.02;87.16;97740.56;2253161;79;21296;-65
2020/12/12 06:03:02;;;;;;;38.50;15.65;;;;;;;0.98;86.99;97737.27;2253315;79;21701;-65
2020/12/12 06:06:05;;;;;;;41.50;17.07;;;;;;;0.98;87.24;97739.86;2253660;79;21260;-65
2020/12/12 06:09:07;;;;;;;40.23;16.45;;;;;;;1.00;87.08;97743.20;2253417;79;21792;-65
2020/12/12 06:12:09;;;;;;;39.75;16.65;;;;;;;1.02;87.06;97749.17;2223638;79;21260;-65
2020/12/12 06:15:11;;;;;;;37.40;14.33;;;;;;;1.04;87.13;97738.31;2253423;79;21300;-64
2020/12/12 06:18:13;;;;;;;36.05;15.03;;;;;;;1.04;87.17;97742.19;2253388;79;21728;-65
2020/12/12 06:21:15;;;;;;;40.38;15.32;;;;;;;1.04;87.41;97743.94;2253178;79;21250;-65
2020/12/12 06:24:18;;;;;;;;;;;;;;;1.03;87.62;97737.09;2255686;79;21269;-65
2020/12/12 06:27:20;;;;;;;39.17;15.87;;;;;;;1.01;87.48;97742.31;2253769;78;20220;-65
2020/12/12 06:30:22;;;;;;;42.17;16.25;;;;;;;1.02;87.57;97734.97;2253401;79;21688;-65
2020/12/12 06:33:24;;;;;;;38.73;16.42;;;;;;;1.04;87.50;97739.61;2253200;79;21289;-65
2020/12/12 06:36:27;;;;;;;40.25;15.63;;;;;;;1.04;87.45;97740.89;2253121;79;21634;-65
2020/12/12 06:39:29;;;;;;;43.23;15.83;;;;;;;1.08;87.46;97744.21;2253202;79;21285;-65
2020/12/12 06:42:31;;;;;;;42.53;17.70;;;;;;;1.14;87.32;97741.84;2253133;79;21280;-65
2020/12/12 06:45:33;;;;;;;40.98;17.17;;;;;;;1.18;87.31;97737.77;2253509;79;21276;-65
2020/12/12 06:48:36;;;;;;;40.35;15.90;;;;;;;1.19;87.31;97733.44;2253854;79;21320;-65
2020/12/12 06:51:38;;;;;;;39.98;15.83;;;;;;;1.17;87.53;97729.63;2253520;79;21721;-65
2020/12/12 06:54:40;;;;;;;39.90;16.32;;;;;;;1.19;87.58;97738.60;2253375;79;21301;-65
2020/12/12 06:57:43;;;;;;;39.05;15.63;;;;;;;1.22;87.63;97746.22;2253434;79;21150;-65
2020/12/12 07:00:46;;;;;;;42.05;17.67;;;;;;;1.16;87.57;97740.02;2253365;79;21257;-65
2020/12/12 07:03:48;;;;;;;43.08;18.02;;;;;;;1.17;87.53;97745.59;2253878;79;21280;-65
2020/12/12 07:06:50;;;;;;;39.55;16.95;;;;;;;1.21;87.69;97744.56;2253325;79;21265;-65
2020/12/12 07:09:52;;;;;;;38.53;15.23;;;;;;;1.18;87.93;97739.53;2253296;78;21704;-65
2020/12/12 07:12:54;;;;;;;40.63;18.05;;;;;;;1.19;87.85;97743.77;2223794;79;21264;-65
2020/12/12 07:15:56;;;;;;;39.75;16.35;;;;;;;1.21;87.69;97750.56;2253422;79;21732;-65
2020/12/12 07:18:59;;;;;;;38.85;15.88;;;;;;;1.22;87.70;97755.27;2253308;79;21269;-65
2020/12/12 07:22:01;;;;;;;41.75;17.25;;;;;;;1.26;87.81;97761.99;2253468;79;21276;-65
2020/12/12 07:25:05;;;;;;;40.25;16.65;;;;;;;1.31;87.70;97772.99;2253347;79;21127;-65
2020/12/12 07:28:08;;;;;;;36.33;15.48;;;;;;;1.35;87.70;97764.66;2253469;79;21265;-65
2020/12/12 07:31:10;;;;;;;38.15;15.90;;;;;;;1.36;87.68;97765.88;2253824;79;21273;-65
2020/12/12 07:34:12;;;;;;;41.50;16.85;;;;;;;1.37;87.63;97767.57;2253210;79;21134;-65
2020/12/12 07:37:14;;;;;;;40.35;17.90;;;;;;;1.44;87.87;97766.88;2253780;79;21280;-65
2020/12/12 07:40:19;;;;;;;38.58;16.02;;;;;;;1.48;87.58;97761.98;2253595;79;21722;-65
2020/12/12 07:43:21;;;;;;;42.48;17.05;;;;;;;1.54;87.59;97768.17;2253195;79;21268;-65
2020/12/12 07:46:38;;;;;;;37.05;15.55;;;;;;;1.65;87.49;97769.47;2253617;79;21312;-65
2020/12/12 07:49:29;;;;;;;36.17;14.93;;;;;;;1.64;87.26;97758.30;2248649;79;21280;-65
2020/12/12 07:52:31;;;;;;;38.53;15.38;;;;;;;1.66;87.21;97755.65;2253315;79;21273;-65
2020/12/12 07:55:37;;;;;;;;;;;;;;;1.69;87.25;97759.39;2255874;79;21288;-65
2020/12/12 07:58:38;;;;;;;36.13;14.35;;;;;;;1.69;87.23;97756.34;2253101;78;20225;-65
2020/12/12 08:01:40;;;;;;;;;;;;;;;1.69;87.14;97760.22;2255944;79;21292;-65
2020/12/12 08:04:42;;;;;;;36.77;15.17;;;;;;;1.71;87.26;97758.44;2253459;78;20217;-65
2020/12/12 08:07:45;;;;;;;36.05;15.50;;;;;;;1.72;87.18;97762.70;2253505;79;21542;-65
2020/12/12 08:10:47;;;;;;;34.03;14.43;;;;;;;1.76;87.27;97768.57;2253243;79;21301;-65
2020/12/12 08:13:49;;;;;;;32.80;13.62;;;;;;;1.77;87.07;97772.84;2253256;79;21737;-65
2020/12/12 08:16:56;;;;;;;30.65;12.60;;;;;;;1.78;87.17;97767.21;2253725;79;21280;-65
2020/12/12 08:19:58;;;;;;;32.38;13.38;;;;;;;1.77;87.07;97768.11;2253663;79;21264;-65
2020/12/12 08:23:01;;;;;;;;;;;;;;;1.77;87.06;97762.50;2255840;79;21296;-65
2020/12/12 08:26:03;;;;;;;31.00;11.60;;;;;;;1.82;87.05;97760.55;2253410;79;20138;-65
2020/12/12 08:29:05;;;;;;;29.27;11.63;;;;;;;1.82;86.85;97755.38;2253425;79;21125;-65
2020/12/12 08:32:07;;;;;;;31.52;12.80;;;;;;;1.78;86.73;97758.16;2253761;79;21296;-65
2020/12/12 08:35:10;;;;;;;29.75;12.88;;;;;;;1.79;86.85;97766.31;2253778;79;21277;-65
2020/12/12 08:38:12;;;;;;;33.50;12.40;;;;;;;1.81;86.92;97766.64;2253426;79;21328;-65
2020/12/12 08:41:14;;;;;;;33.88;14.20;;;;;;;1.86;86.96;97761.27;2253116;79;21740;-65
2020/12/12 08:44:17;;;;;;;31.23;13.00;;;;;;;1.91;86.83;97765.78;2253262;79;21257;-64
2020/12/12 08:47:19;;;;;;;29.48;12.05;;;;;;;1.98;86.71;97773.66;2253322;79;21264;-65
2020/12/12 08:50:21;;;;;;;30.72;13.18;;;;;;;2.01;86.49;97771.41;2253772;79;21260;-65
2020/12/12 08:53:23;;;;;;;34.08;13.98;;;;;;;2.01;86.45;97781.31;2253216;79;21265;-65
2020/12/12 08:56:25;;;;;;;32.15;13.70;;;;;;;2.01;86.45;97776.58;2253327;79;21328;-65
2020/12/12 08:59:28;;;;;;;31.07;12.70;;;;;;;2.06;86.43;97774.64;2253635;79;21253;-65
2020/12/12 09:02:30;;;;;;;33.13;13.70;;;;;;;2.10;86.40;97772.31;2253613;79;21284;-65
2020/12/12 09:05:32;;;;;;;32.50;12.60;;;;;;;2.14;86.53;97774.30;2253229;79;21265;-65
2020/12/12 09:08:35;;;;;;;29.00;12.18;;;;;;;2.15;85.99;97772.11;2253005;78;21718;-65
2020/12/12 09:11:37;;;;;;;28.27;11.78;;;;;;;2.14;86.19;97771.70;2253268;79;21261;-64
2020/12/12 09:14:39;;;;;;;29.12;11.97;;;;;;;2.17;85.93;97776.75;2223768;79;21614;-64
2020/12/12 09:17:42;;;;;;;30.52;12.37;;;;;;;2.20;86.25;97778.76;2253292;79;21739;-65
2020/12/12 09:20:44;;;;;;;29.40;12.20;;;;;;;2.28;86.17;97781.47;2253262;79;21249;-65
2020/12/12 09:23:46;;;;;;;29.25;11.53;;;;;;;2.38;86.10;97774.50;2253482;79;21265;-65
2020/12/12 09:26:48;;;;;;;28.25;11.10;;;;;;;2.41;85.67;97774.39;2253674;79;21281;-65
2020/12/12 09:29:50;;;;;;;30.32;12.47;;;;;;;2.36;85.34;97768.57;2253207;79;21710;-64
2020/12/12 09:32:52;;;;;;;32.63;13.93;;;;;;;2.36;85.63;97771.16;2253746;79;21269;-65
2020/12/12 09:35:54;;;;;;;34.13;15.45;;;;;;;2.38;85.60;97765.91;2253389;79;21280;-65
2020/12/12 09:38:57;;;;;;;30.27;12.35;;;;;;;2.41;85.72;97757.57;2253489;79;21284;-65
2020/12/12 09:41:59;;;;;;;31.33;13.85;;;;;;;2.48;85.38;97751.64;2253751;79;21264;-65
2020/12/12 09:45:01;;;;;;;31.48;15.35;;;;;;;2.49;85.55;97752.03;2253182;79;21705;-65
2020/12/12 09:48:03;;;;;;;32.13;13.83;;;;;;;2.53;85.59;97754.88;2253178;79;21253;-65
2020/12/12 09:51:05;;;;;;;29.80;13.22;;;;;;;2.55;85.23;97747.86;2253695;79;21261;-65
2020/12/12 09:54:07;;;;;;;28.52;11.73;;;;;;;;;;2253411;79;21733;-65
2020/12/12 09:57:09;;;;;;;30.97;12.53;;;;;;;2.56;84.88;97739.20;2253108;79;21273;-64
2020/12/12 10:00:11;;;;;;;29.95;12.78;;;;;;;2.59;85.25;97747.28;2253715;79;21264;-65
2020/12/12 10:03:13;;;;;;;36.23;15.30;;;;;;;2.63;85.07;97746.23;2253263;79;21277;-65
2020/12/12 10:06:16;;;;;;;33.28;13.45;;;;;;;2.66;85.12;97741.35;2253449;79;21293;-65
2020/12/12 10:09:18;;;;;;;29.32;12.20;;;;;;;2.69;85.01;97738.64;2253544;79;21289;-64
2020/12/12 10:12:20;;;;;;;30.30;12.85;;;;;;;2.72;84.80;97735.91;2253492;79;21241;-65
2020/12/12 10:15:22;;;;;;;33.75;13.55;;;;;;;2.75;84.37;97728.82;2253194;79;21252;-65
2020/12/12 10:18:24;;;;;;;33.98;12.58;;;;;;;2.74;84.75;97730.19;2253168;79;21305;-65
2020/12/12 10:21:26;;;;;;;31.30;12.93;;;;;;;2.76;84.85;97736.98;2253668;79;21300;-65
2020/12/12 10:24:28;;;;;;;31.52;13.48;;;;;;;2.77;84.75;97732.20;2253158;79;21724;-64
2020/12/12 10:27:30;;;;;;;30.70;13.15;;;;;;;2.79;84.96;97734.71;2253140;79;21261;-64
2020/12/12 10:30:33;;;;;;;31.02;13.93;;;;;;;2.89;84.94;97726.06;2223717;79;21269;-64
2020/12/12 10:33:36;;;;;;;29.00;12.50;;;;;;;2.94;84.64;97730.55;2253032;79;21292;-65
2020/12/12 10:36:44;;;;;;;31.12;14.35;;;;;;;3.03;84.81;97722.79;2253098;79;21531;-65
2020/12/12 10:39:52;;;;;;;29.77;11.88;;;;;;;3.07;84.05;97723.03;2253202;79;21270;-65
2020/12/12 10:42:52;;;;;;;29.42;12.88;;;;;;;3.04;84.17;97724.48;2252838;79;21261;-65
2020/12/12 10:45:55;;;;;;;;;;;;;;;3.05;84.34;97719.69;2255948;79;21696;-65
2020/12/12 10:48:57;;;;;;;28.10;12.03;;;;;;;3.06;84.10;97734.30;2253432;78;20249;-65
2020/12/12 10:51:59;;;;;;;27.35;11.80;;;;;;;3.01;83.75;97730.64;2253674;79;21264;-65
2020/12/12 10:55:02;;;;;;;26.33;11.45;;;;;;;3.00;83.89;97735.42;2253272;79;21266;-65
2020/12/12 10:58:04;;;;;;;29.20;12.47;;;;;;;2.93;83.50;97733.61;2253078;79;21257;-65
2020/12/12 11:01:06;;;;;;;29.37;12.82;;;;;;;2.94;84.08;97735.29;2223667;79;21245;-65
2020/12/12 11:04:08;;;;;;;31.02;14.50;;;;;;;2.98;84.03;97737.73;2253406;79;21123;-65
2020/12/12 11:07:11;;;;;;;32.08;12.70;;;;;;;2.98;84.04;97737.27;2223640;79;21130;-65
2020/12/12 11:10:13;;;;;;;31.12;12.05;;;;;;;3.03;83.95;97739.63;2260380;78;21295;-65
2020/12/12 11:13:15;;;;;;;31.68;12.28;;;;;;;3.06;83.95;97735.59;2269354;78;21292;-65
2020/12/12 11:16:17;;;;;;;27.00;11.20;;;;;;;3.04;83.88;97737.43;2269628;78;21174;-65
2020/12/12 11:19:20;;;;;;;26.77;11.50;;;;;;;3.08;83.77;97736.38;2269363;78;21280;-65
2020/12/12 11:22:22;;;;;;;27.13;11.70;;;;;;;3.03;83.71;97738.34;2269333;78;21276;-65
2020/12/12 11:25:24;;;;;;;29.77;12.73;;;;;;;3.00;83.89;97739.31;2269117;78;21708;-65
2020/12/12 11:28:26;;;;;;;27.65;12.40;;;;;;;3.00;83.89;97743.66;2269212;78;21257;-65
2020/12/12 11:31:28;;;;;;;29.32;12.43;;;;;;;2.94;83.91;97752.13;2269530;78;21695;-65
2020/12/12 11:34:34;;;;;;;31.37;12.63;;;;;;;3.00;84.17;97750.14;2269429;78;21296;-65
2020/12/12 11:38:02;;;;;;;31.35;12.80;;;;;;;3.04;83.38;97743.44;2268929;78;21284;-65
2020/12/12 11:41:07;;;;;;;28.17;12.23;;;;;;;2.92;83.73;97746.16;2268431;78;21720;-65
2020/12/12 11:44:37;;;;;;;25.68;10.85;;;;;;;2.89;83.97;97750.66;2268694;78;21264;-65
2020/12/12 11:47:33;;;;;;;27.27;11.30;;;;;;;2.82;83.70;97748.81;2268257;78;21291;-65
2020/12/12 11:50:35;;;;;;;29.00;12.05;;;;;;;2.78;83.86;97750.69;2269445;78;21272;-65
2020/12/12 11:53:38;;;;;;;26.40;11.43;;;;;;;2.77;83.84;97759.39;2269378;78;21252;-65
2020/12/12 11:56:40;;;;;;;29.72;11.83;;;;;;;2.73;83.97;97759.58;2269839;78;21276;-64
2020/12/12 11:59:42;;;;;;;32.40;12.63;;;;;;;2.72;83.96;97761.34;2269468;78;21265;-64
2020/12/12 12:02:44;;;;;;;29.95;13.32;;;;;;;2.75;84.12;97761.19;2269329;78;21304;-64
2020/12/12 12:05:49;;;;;;;31.82;13.28;;;;;;;2.78;84.08;97770.58;2269578;78;21142;-64
2020/12/12 12:09:08;;;;;;;30.02;12.70;;;;;;;2.86;84.06;97767.62;2269356;78;21727;-64
2020/12/12 12:12:00;;;;;;;29.50;12.55;;;;;;;2.88;84.04;97767.94;2278334;78;21783;-65
2020/12/12 12:15:02;;;;;;;29.50;12.98;;;;;;;2.88;84.03;97768.41;2283472;78;21271;-64
2020/12/12 12:18:05;;;;;;;29.40;12.43;;;;;;;2.89;83.88;97768.80;2283369;78;21272;-65
2020/12/12 12:21:07;;;;;;;29.30;11.88;;;;;;;2.89;83.98;97773.98;2283473;78;21287;-65
2020/12/12 12:24:09;;;;;;;33.75;13.70;;;;;;;2.91;84.13;97778.62;2251090;78;21161;-65
2020/12/12 12:27:11;;;;;;;33.45;13.58;;;;;;;2.99;83.59;97779.11;2283438;78;21141;-65
2020/12/12 12:30:14;;;;;;;32.15;14.28;;;;;;;2.96;83.71;97774.08;2283600;78;21561;-65
2020/12/12 12:33:16;;;;;;;31.23;13.28;;;;;;;2.95;83.77;97774.98;2283833;78;21333;-65
2020/12/12 12:36:19;;;;;;;28.32;12.13;;;;;;;3.03;83.76;97778.48;2283392;78;21284;-65
2020/12/12 12:39:21;;;;;;;29.23;11.85;;;;;;;3.02;83.27;97772.95;2283457;78;21252;-65
2020/12/12 12:42:23;;;;;;;28.95;12.98;;;;;;;2.97;83.25;97778.79;2283655;78;21106;-65
2020/12/12 12:45:26;;;;;;;27.67;11.90;;;;;;;2.95;83.66;97780.16;2283736;78;21146;-64
2020/12/12 12:48:28;;;;;;;32.60;12.95;;;;;;;3.03;83.71;97785.83;2283739;78;21241;-65
2020/12/12 12:51:30;;;;;;;31.40;14.20;;;;;;;3.12;83.81;97783.25;2283459;78;21264;-64
2020/12/12 12:54:32;;;;;;;37.08;16.30;;;;;;;3.17;83.37;97783.86;2283451;78;21256;-65
2020/12/12 12:57:35;;;;;;;35.38;14.65;;;;;;;3.24;83.29;97783.95;2283641;78;21712;-64
2020/12/12 13:00:39;;;;;;;35.68;15.48;;;;;;;3.32;83.61;97789.22;2283941;78;21284;-65
2020/12/12 13:03:41;;;;;;;31.65;13.83;;;;;;;3.38;82.79;97788.48;2283270;78;21283;-65
2020/12/12 13:06:45;;;;;;;33.25;13.05;;;;;;;3.38;82.63;97791.54;2283495;78;21735;-65
2020/12/12 13:09:47;;;;;;;32.63;13.75;;;;;;;3.39;82.35;97789.30;2281720;78;21315;-65
2020/12/12 13:12:49;;;;;;;40.20;17.67;;;;;;;3.36;82.21;97793.34;2246331;78;21285;-64
2020/12/12 13:15:52;;;;;;;30.45;13.00;;;;;;;3.37;82.49;97795.03;2246280;78;21255;-65
2020/12/12 13:18:59;;;;;;;28.95;12.18;;;;;;;3.34;82.25;97795.19;2269380;78;21149;-65
2020/12/12 13:22:00;;;;;;;31.10;14.55;;;;;;;3.19;81.94;97796.30;2268925;78;21260;-65
2020/12/12 13:25:03;;;;;;;46.65;19.42;;;;;;;3.14;82.69;97797.44;2269495;78;21703;-65
2020/12/12 13:31:28;;;;;;;39.70;16.90;;;;;;;3.13;82.39;97804.34;2269185;78;21277;-65
2020/12/12 13:34:31;;;;;;;29.35;11.68;;;;;;;3.10;82.65;97810.53;2269089;78;21740;-65
2020/12/12 13:37:33;;;;;;;29.87;12.07;;;;;;;3.05;82.46;97812.95;2269351;78;21296;-65
2020/12/12 13:40:35;;;;;;;32.28;12.47;;;;;;;3.05;82.48;97814.25;2269275;78;21720;-65
2020/12/12 13:43:38;;;;;;;29.12;12.50;;;;;;;2.95;82.17;97808.66;2269302;78;21256;-65
2020/12/12 13:46:40;;;;;;;36.15;14.07;;;;;;;2.88;82.73;97809.38;2269186;78;21261;-65
2020/12/12 13:49:43;;;;;;;33.42;13.08;;;;;;;2.80;82.79;97803.70;2269377;78;21576;-65
2020/12/12 13:52:45;;;;;;;32.53;13.35;;;;;;;2.83;83.09;97810.06;2269732;78;21273;-65
2020/12/12 13:55:47;;;;;;;32.30;14.23;;;;;;;2.84;83.20;97811.72;2269395;78;21288;-65
2020/12/12 13:58:49;;;;;;;31.62;13.13;;;;;;;2.86;83.13;97812.51;2269727;78;21130;-65
2020/12/12 14:01:51;;;;;;;31.15;12.93;;;;;;;2.86;82.77;97811.22;2269273;78;21273;-65
2020/12/12 14:04:53;;;;;;;39.92;15.80;;;;;;;2.76;82.79;97815.14;2269542;78;21704;-65
2020/12/12 14:07:56;;;;;;;33.42;13.93;;;;;;;2.70;82.97;97808.48;2269547;78;21279;-64
2020/12/12 14:11:25;;;;;;;35.35;14.95;;;;;;;2.66;83.07;97817.30;2263038;78;21288;-65
2020/12/12 14:24:27;;;;;;;38.35;15.15;;;;;;;2.59;83.62;97828.84;2189280;79;21155;-65
2020/12/12 14:30:49;;;;;;;34.13;15.40;;;;;;;2.56;83.36;97822.51;2253155;79;21138;-65
2020/12/12 14:33:52;;;;;;;33.60;14.70;;;;;;;2.49;83.57;97824.98;2253345;79;21747;-65